Time;durP1;ratioP1;P1;durP2;ratioP2;P2;SDS_P1;SDS_P2;PMS_P1;PMS_P2;Temp;Humidity;BMP_temperature;BMP_pressure;BME280_temperature;BME280_humidity;BME280_pressure;Samples;Min_cycle;Max_cycle;Signal;HPM_P1;HPM_P2
2022/09/28 00:01:32;;;;;;;9.85;8.85;;;;;;;13.67;86.97;93922.56;5115826;28;20210;-69
2022/09/28 00:04:01;;;;;;;10.55;9.40;;;;;;;13.66;86.95;93928.53;5117346;28;20188;-69
2022/09/28 00:06:29;;;;;;;10.05;8.35;;;;;;;13.64;87.10;93928.91;5117269;28;20192;-69
2022/09/28 00:08:56;;;;;;;9.88;8.85;;;;;;;13.63;86.80;93927.34;5117108;28;20184;-69
2022/09/28 00:11:26;;;;;;;10.18;9.18;;;;;;;13.61;86.31;93924.16;5116914;28;20198;-70
2022/09/28 00:13:55;;;;;;;9.63;8.82;;;;;;;13.60;86.32;93936.44;5116771;28;20183;-70
2022/09/28 00:16:25;;;;;;;10.30;9.40;;;;;;;13.57;86.43;93919.84;5117185;28;20275;-70
2022/09/28 00:18:52;;;;;;;9.50;8.60;;;;;;;13.57;86.29;93920.63;5115974;28;20647;-69
2022/09/28 00:21:25;;;;;;;10.05;9.05;;;;;;;13.52;86.37;93915.50;5116668;28;20199;-69
2022/09/28 00:26:37;;;;;;;9.60;8.70;;;;;;;13.42;86.17;93919.09;5116525;28;20176;-70
2022/09/28 00:29:04;;;;;;;7.47;6.78;;;;;;;13.39;86.47;93909.59;5116815;28;20192;-70
2022/09/28 00:31:32;;;;;;;8.38;7.57;;;;;;;13.38;86.53;93918.31;5115363;28;20227;-69
2022/09/28 00:34:00;;;;;;;7.65;6.95;;;;;;;13.39;86.61;93911.56;5116768;28;20260;-69
2022/09/28 00:36:29;;;;;;;7.03;6.32;;;;;;;13.39;86.35;93909.59;5116665;28;20184;-69
2022/09/28 00:38:57;;;;;;;6.68;6.07;;;;;;;13.39;86.21;93914.34;5116110;28;20655;-69
2022/09/28 00:41:24;;;;;;;7.05;6.45;;;;;;;13.37;86.29;93909.22;5116603;28;20191;-69
2022/09/28 00:43:51;;;;;;;6.53;5.93;;;;;;;13.35;85.71;93916.31;5116240;28;20206;-69
2022/09/28 00:46:21;;;;;;;7.07;6.38;;;;;;;13.30;85.46;93913.97;5116481;28;20195;-69
2022/09/28 00:48:52;;;;;;;6.97;6.22;;;;;;;13.29;85.58;93906.81;5116046;28;20192;-69
2022/09/28 00:51:19;;;;;;;6.97;6.30;;;;;;;13.30;85.28;93912.00;5115563;28;20211;-69
2022/09/28 00:53:49;;;;;;;7.18;6.32;;;;;;;13.28;85.25;93913.56;5116195;28;20199;-69
2022/09/28 00:56:18;;;;;;;6.38;5.70;;;;;;;13.26;85.43;93910.41;5116042;28;20506;-69
2022/09/28 00:58:48;;;;;;;6.30;5.70;;;;;;;13.22;85.69;93900.09;5115833;28;20215;-69
2022/09/28 01:01:15;;;;;;;6.18;5.68;;;;;;;13.21;85.38;93906.81;5115049;28;20202;-69
2022/09/28 01:03:44;;;;;;;5.55;5.05;;;;;;;13.20;85.66;93912.75;5115851;28;20196;-69
2022/09/28 01:06:17;;;;;;;5.93;5.30;;;;;;;13.19;85.32;93913.97;5115190;28;20195;-69
2022/09/28 01:08:44;;;;;;;5.97;5.30;;;;;;;13.16;85.69;93914.75;5115262;28;20282;-69
2022/09/28 01:11:13;;;;;;;5.97;5.35;;;;;;;13.14;85.50;93915.13;5115082;28;20303;-69
2022/09/28 01:13:40;;;;;;;5.68;5.18;;;;;;;13.10;84.92;93911.56;5114716;28;20202;-69
2022/09/28 01:16:11;;;;;;;6.50;5.85;;;;;;;13.05;84.58;93916.72;5115955;28;20191;-69
2022/09/28 01:18:43;;;;;;;6.20;5.60;;;;;;;12.99;84.31;93925.41;5115896;28;20208;-69
2022/09/28 01:21:15;;;;;;;6.65;5.95;;;;;;;12.96;84.31;93919.88;5114991;28;20191;-69
2022/09/28 01:24:08;;;;;;;5.70;5.15;;;;;;;12.90;84.79;93919.50;5115923;28;20202;-69
2022/09/28 01:26:53;;;;;;;6.05;5.53;;;;;;;12.88;84.98;93923.84;5115590;28;20201;-69
2022/09/28 01:29:28;;;;;;;5.50;5.00;;;;;;;12.85;85.27;93911.59;5114821;28;20214;-69
2022/09/28 01:32:03;;;;;;;5.80;5.20;;;;;;;12.87;85.47;93917.53;5114478;28;20227;-69
2022/09/28 01:34:36;;;;;;;5.60;5.10;;;;;;;12.92;85.32;93911.59;5114656;28;20626;-69
2022/09/28 01:37:04;;;;;;;5.97;5.40;;;;;;;12.87;84.93;93920.28;5115601;28;20187;-69
2022/09/28 01:39:34;;;;;;;6.30;5.70;;;;;;;12.82;84.66;93926.22;5115652;28;20207;-69
2022/09/28 01:42:05;;;;;;;5.15;4.72;;;;;;;12.84;84.81;93928.59;5115742;28;20213;-69
2022/09/28 01:44:38;;;;;;;5.60;5.10;;;;;;;12.85;84.85;93924.63;5115411;28;20199;-69
2022/09/28 01:47:07;;;;;;;5.80;5.20;;;;;;;12.82;84.96;93919.88;5114607;28;20703;-69
2022/09/28 01:49:37;;;;;;;5.20;4.70;;;;;;;12.84;85.19;93931.38;5114691;28;20526;-70
2022/09/28 01:52:11;;;;;;;5.20;4.70;;;;;;;12.84;85.13;93937.69;5114893;28;20210;-70
2022/09/28 01:54:42;;;;;;;5.60;4.55;;;;;;;12.86;85.53;93915.94;5115451;28;20194;-70
2022/09/28 01:57:15;;;;;;;4.70;4.30;;;;;;;12.87;85.19;93927.81;5114264;28;20203;-70
2022/09/28 01:59:44;;;;;;;5.28;4.88;;;;;;;12.83;85.23;93936.09;5115173;28;20203;-70
2022/09/28 02:02:15;;;;;;;4.80;4.40;;;;;;;12.85;85.37;93936.50;5114755;28;20206;-70
2022/09/28 02:04:45;;;;;;;5.38;4.70;;;;;;;12.83;85.43;93938.09;5115616;28;20188;-70
2022/09/28 02:07:14;;;;;;;5.60;5.10;;;;;;;12.82;85.42;93923.47;5115458;28;20188;-70
2022/09/28 02:09:45;;;;;;;5.28;4.72;;;;;;;12.83;85.60;93929.78;5114711;28;20196;-70
2022/09/28 02:12:16;;;;;;;5.32;4.88;;;;;;;12.79;85.17;93926.22;5115094;28;20184;-70
2022/09/28 02:14:45;;;;;;;5.50;5.00;;;;;;;12.78;85.49;93933.72;5114549;28;20195;-70
2022/09/28 02:17:14;;;;;;;4.90;4.45;;;;;;;12.78;85.36;93933.72;5115368;28;20448;-70
2022/09/28 02:19:42;;;;;;;5.00;4.50;;;;;;;12.76;85.79;93930.56;5115283;28;20298;-70
2022/09/28 02:22:15;;;;;;;5.32;4.70;;;;;;;12.76;85.61;93936.09;5115310;28;20199;-70
2022/09/28 02:24:49;;;;;;;5.97;4.88;;;;;;;12.75;85.35;93938.09;5115752;28;20196;-70
2022/09/28 02:27:19;;;;;;;5.30;4.80;;;;;;;12.72;84.90;93935.31;5118923;28;20176;-70
2022/09/28 02:29:46;;;;;;;5.30;4.90;;;;;;;12.63;84.32;93937.66;5118644;28;20206;-70
2022/09/28 02:32:13;;;;;;;5.47;4.88;;;;;;;12.57;84.15;93930.97;5118185;28;20203;-70
2022/09/28 02:34:39;;;;;;;5.60;5.13;;;;;;;12.51;84.21;93936.84;5118195;28;20188;-70
2022/09/28 02:37:06;;;;;;;5.30;4.78;;;;;;;12.46;83.76;93930.94;5117954;28;20201;-70
2022/09/28 02:39:33;;;;;;;5.47;4.93;;;;;;;12.47;84.12;93929.75;5118299;28;20215;-70
2022/09/28 02:42:08;;;;;;;5.53;5.03;;;;;;;12.43;84.10;93934.47;5119070;28;20191;-70
2022/09/28 02:45:00;;;;;;;5.72;5.10;;;;;;;12.41;84.43;93934.06;5117461;28;20665;-70
2022/09/28 02:47:39;;;;;;;5.38;4.90;;;;;;;12.39;84.10;93931.72;5117817;28;20191;-70
2022/09/28 02:50:13;;;;;;;5.68;5.05;;;;;;;12.38;83.95;93934.84;5118872;28;20298;-69
2022/09/28 02:53:07;;;;;;;5.90;5.30;;;;;;;12.35;84.38;93947.50;5118834;28;20237;-70
2022/09/28 02:55:43;;;;;;;6.43;5.82;;;;;;;12.34;84.39;93942.34;5118953;28;20183;-70
2022/09/28 02:58:20;;;;;;;7.82;5.93;;;;;;;12.36;84.27;93945.53;5118426;28;20179;-70
2022/09/28 03:00:54;;;;;;;6.53;5.97;;;;;;;12.34;85.11;93945.91;5117596;28;20199;-70
2022/09/28 03:03:29;;;;;;;7.85;6.10;;;;;;;12.38;85.22;93954.22;5118194;28;20607;-70
2022/09/28 03:06:00;;;;;;;7.55;5.78;;;;;;;12.38;85.52;93949.50;5117211;28;20191;-70
2022/09/28 03:08:31;;;;;;;6.35;5.85;;;;;;;12.38;85.19;93952.25;5118163;28;20207;-70
2022/09/28 03:11:00;;;;;;;6.38;5.88;;;;;;;12.37;84.90;93955.41;5117118;28;20207;-70
2022/09/28 03:13:27;;;;;;;7.43;6.18;;;;;;;12.38;85.03;93968.03;5117454;28;20192;-70
2022/09/28 03:16:08;;;;;;;7.65;6.85;;;;;;;12.39;85.52;93966.88;5117319;28;20203;-70
2022/09/28 03:18:34;;;;;;;6.80;6.15;;;;;;;12.43;85.57;93968.44;5117357;28;20292;-70
2022/09/28 03:21:02;;;;;;;6.00;5.32;;;;;;;12.42;85.12;93972.41;5117135;28;20191;-70
2022/09/28 03:23:28;;;;;;;6.93;6.22;;;;;;;12.38;84.77;93974.38;5118089;28;20195;-70
2022/09/28 03:25:55;;;;;;;6.45;5.45;;;;;;;12.39;85.13;93983.47;5117567;28;20518;-70
2022/09/28 03:28:22;;;;;;;6.78;5.97;;;;;;;12.36;84.74;93976.72;5116950;28;20199;-70
2022/09/28 03:30:49;;;;;;;6.82;6.28;;;;;;;12.32;84.68;93981.47;5116649;28;20242;-70
2022/09/28 03:33:18;;;;;;;6.80;6.20;;;;;;;12.28;84.91;93984.22;5116940;28;20219;-70
2022/09/28 03:35:46;;;;;;;6.60;5.82;;;;;;;12.31;84.91;93984.59;5116731;28;20248;-70
2022/09/28 03:38:14;;;;;;;7.32;6.38;;;;;;;12.34;85.15;93975.53;5117815;28;20223;-70
2022/09/28 03:40:40;;;;;;;8.45;7.65;;;;;;;12.33;84.96;93977.50;5116952;28;20199;-70
2022/09/28 03:43:07;;;;;;;9.43;8.52;;;;;;;12.36;85.24;93973.97;5117273;28;20623;-69
2022/09/28 03:45:34;;;;;;;9.45;8.45;;;;;;;12.36;84.96;93973.19;5117741;28;20188;-69
2022/09/28 03:48:01;;;;;;;13.13;11.02;;;;;;;12.35;85.21;93964.09;5117020;28;20202;-70
2022/09/28 03:50:29;;;;;;;10.35;9.35;;;;;;;12.34;85.65;93975.53;5117665;28;20184;-69
2022/09/28 03:53:02;;;;;;;12.63;11.32;;;;;;;12.34;85.58;93979.06;5116402;28;20208;-70
2022/09/28 03:55:30;;;;;;;12.25;10.95;;;;;;;12.34;85.20;93989.34;5116604;28;20245;-70
2022/09/28 03:57:56;;;;;;;10.73;9.73;;;;;;;12.34;85.65;93987.38;5117357;28;20176;-70
2022/09/28 04:00:24;;;;;;;9.05;8.18;;;;;;;12.37;86.00;93977.53;5117122;28;20204;-70
2022/09/28 04:02:50;;;;;;;8.88;8.07;;;;;;;12.39;85.87;93987.00;5116041;28;20188;-69
2022/09/28 04:05:17;;;;;;;10.27;7.30;;;;;;;12.42;86.21;93974.38;5117310;28;20193;-69
2022/09/28 04:07:45;;;;;;;8.50;7.70;;;;;;;12.46;86.28;93973.22;5116562;28;20206;-69
2022/09/28 04:10:12;;;;;;;8.40;7.60;;;;;;;12.46;86.07;93986.25;5116932;28;20191;-70
2022/09/28 04:12:39;;;;;;;8.05;7.35;;;;;;;12.45;86.55;93977.13;5117314;28;20180;-71
2022/09/28 04:15:06;;;;;;;9.07;8.23;;;;;;;12.49;86.55;93974.38;5116809;28;20176;-70
2022/09/28 04:17:33;;;;;;;8.88;7.25;;;;;;;12.50;86.58;93974.00;5116159;28;20199;-70
2022/09/28 04:20:01;;;;;;;7.47;6.78;;;;;;;12.52;86.34;93979.13;5116621;28;20222;-70
2022/09/28 04:22:28;;;;;;;7.70;6.90;;;;;;;12.52;86.53;93985.44;5117009;28;20199;-70
2022/09/28 04:24:56;;;;;;;6.32;5.72;;;;;;;12.56;86.66;93981.91;5115635;28;20604;-69
2022/09/28 04:30:09;;;;;;;8.93;6.80;;;;;;;12.54;86.33;93990.59;5115896;28;20191;-70
2022/09/28 04:32:39;;;;;;;7.63;6.78;;;;;;;12.52;86.83;93987.44;5116019;28;20215;-70
2022/09/28 04:35:07;;;;;;;9.55;7.38;;;;;;;12.51;86.83;93986.63;5115820;28;20591;-70
2022/09/28 04:37:34;;;;;;;8.02;7.13;;;;;;;12.53;86.87;93983.50;5115773;28;20199;-70
2022/09/28 04:40:02;;;;;;;7.55;6.78;;;;;;;12.55;86.78;93980.31;5116860;28;20230;-69
2022/09/28 04:42:29;;;;;;;6.97;6.32;;;;;;;12.56;86.73;93982.69;5115467;28;20210;-70
2022/09/28 04:44:57;;;;;;;8.55;7.00;;;;;;;12.59;87.11;93986.66;5116532;28;20194;-70
2022/09/28 04:47:24;;;;;;;8.88;7.13;;;;;;;12.59;87.23;93987.44;5114953;28;20248;-70
2022/09/28 04:49:51;;;;;;;7.65;6.95;;;;;;;12.60;87.25;93986.28;5115876;28;20207;-70
2022/09/28 04:52:17;;;;;;;7.13;6.40;;;;;;;12.65;87.48;93974.03;5115832;28;20204;-70
2022/09/28 04:54:44;;;;;;;8.35;7.55;;;;;;;12.69;86.96;93974.81;5115559;28;20196;-70
2022/09/28 04:57:12;;;;;;;9.30;7.05;;;;;;;12.68;87.21;93979.56;5116250;28;20652;-70
2022/09/28 04:59:39;;;;;;;8.70;6.75;;;;;;;12.71;87.22;93978.78;5115070;28;20650;-69
2022/09/28 05:02:06;;;;;;;7.57;6.75;;;;;;;12.73;87.24;93987.47;5115175;28;20195;-69
2022/09/28 05:04:33;;;;;;;7.03;6.32;;;;;;;12.78;87.26;93977.97;5116324;28;20199;-69
2022/09/28 05:06:59;;;;;;;6.68;6.07;;;;;;;12.80;86.91;93972.84;5115948;28;20176;-69
2022/09/28 05:09:26;;;;;;;6.90;6.13;;;;;;;12.83;86.93;93980.38;5114944;28;20200;-69
2022/09/28 05:11:53;;;;;;;7.20;6.18;;;;;;;12.83;86.66;93985.13;5116132;28;20195;-70
2022/09/28 05:14:22;;;;;;;9.00;7.38;;;;;;;12.84;86.54;93986.69;5115420;28;20188;-70
2022/09/28 05:16:48;;;;;;;7.85;7.05;;;;;;;12.84;86.13;93992.25;5116215;28;20198;-70
2022/09/28 05:19:15;;;;;;;7.38;6.68;;;;;;;12.86;86.36;93981.56;5115116;28;20218;-70
2022/09/28 05:21:44;;;;;;;7.40;6.80;;;;;;;12.86;86.80;93990.66;5116009;28;20191;-70
2022/09/28 05:24:11;;;;;;;7.50;6.80;;;;;;;12.87;87.09;93988.69;5114846;28;20253;-70
2022/09/28 05:26:38;;;;;;;7.75;7.00;;;;;;;12.90;86.66;93985.94;5116011;28;20203;-71
2022/09/28 05:29:05;;;;;;;7.35;6.57;;;;;;;12.89;86.78;93980.75;5116059;28;20192;-70
2022/09/28 05:31:33;;;;;;;7.63;6.70;;;;;;;12.92;86.56;93985.50;5116411;28;20266;-70
2022/09/28 05:34:00;;;;;;;7.20;6.35;;;;;;;12.96;87.13;93986.31;5115348;28;20192;-70
2022/09/28 05:36:27;;;;;;;8.18;7.00;;;;;;;13.06;86.71;93990.28;5116141;28;20198;-70
2022/09/28 05:38:54;;;;;;;8.57;7.68;;;;;;;13.04;86.91;93987.13;5115858;28;20188;-70
2022/09/28 05:41:20;;;;;;;7.95;7.15;;;;;;;13.06;86.64;93995.81;5115874;28;20186;-70
2022/09/28 05:43:50;;;;;;;7.93;7.15;;;;;;;13.04;87.10;93996.22;5115834;28;20196;-70
2022/09/28 05:46:17;;;;;;;7.00;6.03;;;;;;;13.08;87.10;93987.91;5116017;28;20184;-70
2022/09/28 05:48:45;;;;;;;6.85;6.20;;;;;;;13.17;86.66;93988.28;5115114;28;20196;-70
2022/09/28 05:51:12;;;;;;;6.50;5.90;;;;;;;13.21;86.57;93989.09;5114807;28;20191;-70
2022/09/28 05:53:38;;;;;;;7.07;6.47;;;;;;;13.28;86.27;93991.09;5115729;28;20192;-70
2022/09/28 05:56:05;;;;;;;7.30;6.50;;;;;;;13.32;86.22;93984.38;5115707;28;20191;-70
2022/09/28 05:58:32;;;;;;;7.63;6.00;;;;;;;13.38;86.07;93979.22;5116885;28;20184;-71
2022/09/28 06:00:59;;;;;;;13.65;12.50;;;;;;;13.41;86.19;93983.97;5119407;28;20222;-73
2022/09/28 06:03:25;;;;;;;17.90;16.48;;;;;;;13.45;86.59;93979.22;5119560;28;20184;-73
2022/09/28 06:05:55;;;;;;;19.65;17.75;;;;;;;13.47;86.62;93985.94;5119131;28;20196;-72
2022/09/28 06:08:22;;;;;;;21.17;19.17;;;;;;;13.51;86.85;93991.50;5119768;28;20187;-73
2022/09/28 06:10:49;;;;;;;19.00;17.13;;;;;;;13.55;86.67;94000.59;5118678;28;20188;-73
2022/09/28 06:13:16;;;;;;;16.95;15.35;;;;;;;13.59;86.69;93986.72;5119811;28;20199;-74
2022/09/28 06:15:45;;;;;;;14.40;12.48;;;;;;;13.64;86.64;94000.16;5119312;28;20509;-72
2022/09/28 06:18:14;;;;;;;14.75;13.23;;;;;;;13.65;86.65;94007.28;5120793;28;20206;-72
2022/09/28 06:20:41;;;;;;;14.50;12.98;;;;;;;13.67;86.75;94005.69;5121187;28;20264;-71
2022/09/28 06:23:10;;;;;;;14.50;13.00;;;;;;;13.72;86.99;94010.03;5121318;28;20187;-72
2022/09/28 06:25:37;;;;;;;16.88;15.48;;;;;;;13.74;86.98;94013.22;5120043;28;20192;-72
2022/09/28 06:28:05;;;;;;;15.50;14.10;;;;;;;13.76;87.20;94018.34;5120243;28;20207;-71
2022/09/28 06:30:33;;;;;;;16.15;14.77;;;;;;;13.75;87.10;94011.22;5119378;28;20686;-72
2022/09/28 06:33:01;;;;;;;21.52;19.38;;;;;;;13.77;87.10;94015.19;5119384;28;20631;-73
2022/09/28 06:35:29;;;;;;;18.98;17.10;;;;;;;13.76;86.92;94010.03;5119022;28;20188;-72
2022/09/28 06:37:57;;;;;;;16.52;14.77;;;;;;;13.75;86.83;94009.25;5119170;28;20210;-70
2022/09/28 06:40:25;;;;;;;13.88;12.57;;;;;;;13.74;86.50;94021.53;5118384;28;20223;-68
2022/09/28 06:42:57;;;;;;;13.27;11.93;;;;;;;13.70;86.51;94020.75;5117161;28;20516;-72
2022/09/28 06:45:24;;;;;;;12.80;11.60;;;;;;;13.69;86.46;94022.72;5118548;28;20184;-70
2022/09/28 06:47:56;;;;;;;12.80;11.27;;;;;;;13.70;86.31;94026.28;5118641;28;20184;-70
2022/09/28 06:50:23;;;;;;;11.73;10.45;;;;;;;13.68;86.30;94020.34;5118033;28;20202;-69
2022/09/28 06:52:51;;;;;;;11.65;10.45;;;;;;;13.62;85.85;94024.72;5100750;28;20207;-71
2022/09/28 06:55:18;;;;;;;11.50;10.43;;;;;;;13.60;85.89;94021.53;5118774;28;20252;-71
2022/09/28 06:57:47;;;;;;;14.32;12.85;;;;;;;13.61;86.16;94020.34;5118364;28;20195;-71
2022/09/28 07:00:15;;;;;;;17.40;15.80;;;;;;;13.61;86.21;94023.13;5118664;28;20222;-71
2022/09/28 07:02:42;;;;;;;17.77;16.02;;;;;;;13.62;86.37;94033.81;5117659;28;20192;-71
2022/09/28 07:05:12;;;;;;;16.17;14.60;;;;;;;13.65;86.56;94030.25;5118671;28;20188;-71
2022/09/28 07:07:39;;;;;;;14.32;12.95;;;;;;;13.73;86.92;94029.06;5118911;28;20191;-70
2022/09/28 07:10:07;;;;;;;21.00;16.05;;;;;;;13.79;87.13;94029.41;5117443;28;20188;-71
2022/09/28 07:12:35;;;;;;;16.40;14.73;;;;;;;13.79;86.87;94034.19;5118423;27;20666;-71
2022/09/28 07:15:03;;;;;;;17.67;15.88;;;;;;;13.83;86.71;94034.97;5117843;28;20196;-71
2022/09/28 07:17:32;;;;;;;23.15;17.15;;;;;;;13.84;86.48;94040.13;5118492;28;20210;-71
2022/09/28 07:19:59;;;;;;;21.30;19.02;;;;;;;13.93;86.68;94045.25;5118300;28;20208;-71
2022/09/28 07:22:26;;;;;;;21.15;18.90;;;;;;;14.01;86.58;94046.00;5118377;28;20176;-69
2022/09/28 07:24:52;;;;;;;21.13;18.73;;;;;;;14.11;86.27;94042.44;5117193;28;20200;-68
2022/09/28 07:27:20;;;;;;;24.00;21.50;;;;;;;14.15;86.28;94046.75;5118581;28;20210;-69
2022/09/28 07:29:46;;;;;;;27.27;24.35;;;;;;;14.18;86.30;94050.72;5117527;28;20252;-69
2022/09/28 07:32:15;;;;;;;25.77;23.30;;;;;;;14.23;86.00;94049.53;5117892;28;20239;-68
2022/09/28 07:34:43;;;;;;;21.23;19.17;;;;;;;14.25;85.99;94049.94;5116985;28;20204;-71
2022/09/28 07:37:12;;;;;;;18.02;16.23;;;;;;;14.25;85.48;94052.69;5117846;28;20259;-70
2022/09/28 07:42:19;;;;;;;15.43;13.82;;;;;;;14.22;83.71;94054.28;5115702;28;20196;-70
2022/09/28 07:44:46;;;;;;;16.63;14.90;;;;;;;14.24;84.03;94046.38;5117444;28;20192;-70
2022/09/28 07:47:14;;;;;;;16.90;15.10;;;;;;;14.27;84.18;94039.19;5117707;28;20195;-71
2022/09/28 07:49:41;;;;;;;17.77;15.88;;;;;;;14.30;84.10;94049.50;5117657;28;20175;-71
2022/09/28 07:52:09;;;;;;;17.50;15.82;;;;;;;14.34;84.08;94041.94;5116904;28;20215;-71
2022/09/28 07:54:38;;;;;;;17.75;15.85;;;;;;;14.35;83.69;94049.88;5117571;28;20188;-70
2022/09/28 07:57:05;;;;;;;17.40;15.57;;;;;;;14.37;83.67;94053.03;5116575;28;20257;-71
2022/09/28 07:59:32;;;;;;;17.42;15.65;;;;;;;14.41;84.06;94056.59;5116626;28;20528;-70
2022/09/28 08:01:59;;;;;;;18.25;15.40;;;;;;;14.45;84.29;94045.47;5117648;28;20204;-70
2022/09/28 08:04:29;;;;;;;18.13;14.23;;;;;;;14.44;84.08;94033.59;5116525;28;20631;-70
2022/09/28 08:06:55;;;;;;;15.55;13.60;;;;;;;14.44;83.67;94041.91;5116521;28;20195;-71
2022/09/28 08:09:22;;;;;;;13.75;12.30;;;;;;;14.46;83.53;94044.31;5116634;28;20187;-71
2022/09/28 08:11:49;;;;;;;13.40;12.00;;;;;;;14.50;83.34;94045.09;5117268;28;20176;-70
2022/09/28 08:14:17;;;;;;;11.13;9.40;;;;;;;14.52;83.35;94042.69;5117286;28;20184;-70
2022/09/28 08:16:44;;;;;;;8.75;7.90;;;;;;;14.55;82.71;94049.44;5116651;28;20227;-70
2022/09/28 08:19:11;;;;;;;10.55;8.00;;;;;;;14.62;82.46;94049.41;5116370;28;20623;-70
2022/09/28 08:21:44;;;;;;;9.77;8.43;;;;;;;14.66;81.83;94047.41;5115620;28;20216;-70
2022/09/28 08:24:11;;;;;;;10.43;8.35;;;;;;;14.70;81.99;94050.94;5115797;28;20615;-70
2022/09/28 08:26:38;;;;;;;9.20;8.40;;;;;;;14.77;82.30;94048.13;5116531;28;20204;-71
2022/09/28 08:29:05;;;;;;;12.18;9.75;;;;;;;14.95;82.96;94053.59;5116705;28;20176;-70
2022/09/28 08:31:32;;;;;;;14.73;11.23;;;;;;;15.18;84.45;94058.63;5115765;28;20273;-71
2022/09/28 08:33:58;;;;;;;12.85;11.65;;;;;;;15.40;84.02;94059.28;5117022;28;20666;-70
2022/09/28 08:36:27;;;;;;;14.35;10.93;;;;;;;15.59;81.76;94057.94;5116072;28;20207;-70
2022/09/28 08:38:55;;;;;;;14.15;12.75;;;;;;;15.74;81.26;94050.28;5115978;28;20196;-70
2022/09/28 08:41:29;;;;;;;12.95;11.55;;;;;;;15.85;81.01;94035.06;5117577;28;20259;-70
2022/09/28 08:44:22;;;;;;;15.15;13.43;;;;;;;16.02;79.87;94036.13;5116640;28;20516;-70
2022/09/28 08:46:52;;;;;;;14.55;10.98;;;;;;;16.20;81.61;94046.28;5102488;28;20273;-70
2022/09/28 08:49:24;;;;;;;12.40;11.10;;;;;;;16.37;82.36;94043.25;5116457;28;20203;-70
2022/09/28 08:51:55;;;;;;;12.13;10.82;;;;;;;16.55;80.96;94039.50;5117068;28;20207;-70
2022/09/28 08:54:33;;;;;;;13.10;10.13;;;;;;;16.65;79.14;94030.22;5116205;28;20196;-70
2022/09/28 08:57:03;;;;;;;11.93;10.63;;;;;;;16.76;78.35;94036.47;5115635;28;20187;-71
2022/09/28 08:59:43;;;;;;;12.02;10.43;;;;;;;16.88;77.43;94035.13;5116577;28;20186;-70
2022/09/28 09:02:15;;;;;;;11.32;9.75;;;;;;;17.00;78.02;94028.22;5115492;28;20299;-70
2022/09/28 09:04:42;;;;;;;10.88;8.90;;;;;;;17.15;77.79;94026.00;5115748;28;20206;-70
2022/09/28 09:07:36;;;;;;;11.85;8.85;;;;;;;17.35;76.90;94021.31;5115444;28;20207;-70
2022/09/28 09:10:13;;;;;;;11.18;8.27;;;;;;;17.51;76.59;94021.47;5116257;28;20184;-70
2022/09/28 09:12:46;;;;;;;11.65;8.40;;;;;;;17.62;73.82;94026.88;5115473;28;20195;-70
2022/09/28 09:15:21;;;;;;;11.30;7.45;;;;;;;17.74;72.81;94011.53;5116283;28;20184;-70
2022/09/28 09:17:55;;;;;;;8.55;6.72;;;;;;;17.86;71.53;94016.50;5115574;28;20294;-70
2022/09/28 09:20:27;;;;;;;7.18;6.47;;;;;;;17.98;73.00;94001.97;5115560;28;20219;-69
2022/09/28 09:22:59;;;;;;;7.53;6.75;;;;;;;18.14;71.71;94004.06;5115527;28;20199;-70
2022/09/28 09:25:29;;;;;;;6.93;5.72;;;;;;;18.29;72.89;94004.56;5116077;28;20253;-70
2022/09/28 09:28:16;;;;;;;7.47;6.05;;;;;;;18.38;67.82;93995.66;5116632;28;20217;-70
2022/09/28 09:30:49;;;;;;;9.75;5.53;;;;;;;18.35;66.04;93994.50;5115850;28;20267;-70
2022/09/28 09:33:35;;;;;;;7.65;6.05;;;;;;;18.37;68.89;93994.06;5114811;28;20203;-70
2022/09/28 09:36:18;;;;;;;6.65;5.30;;;;;;;18.51;70.34;94002.94;5115159;28;20604;-71
2022/09/28 09:39:00;;;;;;;7.38;4.97;;;;;;;18.62;66.73;93990.75;5115642;28;20700;-70
2022/09/28 09:41:37;;;;;;;7.70;4.82;;;;;;;18.72;68.72;93992.56;5114826;28;20212;-70
2022/09/28 09:44:38;;;;;;;4.72;4.25;;;;;;;18.83;68.41;93998.72;5115901;28;20186;-71
2022/09/28 09:47:07;;;;;;;8.02;4.30;;;;;;;18.95;65.91;93992.47;5101675;28;20223;-71
2022/09/28 09:49:36;;;;;;;5.25;3.65;;;;;;;19.10;66.33;93990.16;5115534;28;20206;-71
2022/09/28 09:52:07;;;;;;;9.77;5.90;;;;;;;19.28;67.65;93989.75;5114764;28;20199;-71
2022/09/28 09:54:38;;;;;;;9.05;6.90;;;;;;;19.38;64.88;93990.69;5115107;28;20207;-69
2022/09/28 09:57:10;;;;;;;9.15;7.00;;;;;;;19.43;64.87;93984.59;5115094;28;20196;-70
2022/09/28 09:59:40;;;;;;;8.43;6.63;;;;;;;19.40;64.75;93994.63;5114731;28;20200;-70
2022/09/28 10:02:22;;;;;;;10.43;6.78;;;;;;;19.37;64.77;93992.72;5115128;28;20226;-69
2022/09/28 10:04:50;;;;;;;9.13;6.50;;;;;;;19.51;66.58;93986.00;5115666;28;20194;-69
2022/09/28 10:07:22;;;;;;;9.00;6.10;;;;;;;19.61;65.50;93986.97;5115670;28;20195;-70
2022/09/28 10:09:50;;;;;;;9.45;6.00;;;;;;;19.75;64.58;93991.41;5114472;28;20203;-70
2022/09/28 10:12:21;;;;;;;7.32;5.82;;;;;;;19.90;64.04;93968.25;5115179;28;20196;-70
2022/09/28 10:14:48;;;;;;;9.32;5.30;;;;;;;19.96;63.38;93980.47;5114571;28;20541;-70
2022/09/28 10:17:17;;;;;;;5.07;4.10;;;;;;;20.06;63.86;93961.81;5114626;28;20196;-70
2022/09/28 10:19:44;;;;;;;7.30;4.55;;;;;;;20.17;62.33;93972.72;5114715;28;20215;-70
2022/09/28 10:22:15;;;;;;;5.13;4.43;;;;;;;20.22;62.75;93968.59;5115485;28;20218;-70
2022/09/28 10:24:45;;;;;;;7.90;4.50;;;;;;;20.27;60.13;93968.06;5115598;28;20191;-69
2022/09/28 10:27:14;;;;;;;5.10;3.45;;;;;;;20.24;59.62;93964.13;5115385;28;20188;-69
2022/09/28 10:29:51;;;;;;;7.57;3.75;;;;;;;20.16;59.56;93952.34;5114973;28;20204;-70
2022/09/28 10:32:20;;;;;;;6.15;3.80;;;;;;;20.23;62.21;93945.78;5114272;28;20200;-70
2022/09/28 10:34:47;;;;;;;9.23;3.67;;;;;;;20.46;57.81;93953.13;5114471;28;20199;-70
2022/09/28 10:37:14;;;;;;;6.10;3.10;;;;;;;20.61;57.60;93945.91;5115216;28;20192;-70
2022/09/28 10:39:47;;;;;;;3.88;3.00;;;;;;;20.65;57.15;93948.59;5115634;28;20198;-70
2022/09/28 10:42:19;;;;;;;4.40;3.22;;;;;;;20.68;58.63;93940.09;5115171;28;20636;-70
2022/09/28 10:44:56;;;;;;;4.57;2.92;;;;;;;20.72;56.79;93936.41;5115368;28;20661;-70
2022/09/28 10:47:25;;;;;;;4.97;3.20;;;;;;;20.87;55.63;93943.16;5118266;28;20287;-70
2022/09/28 10:49:52;;;;;;;4.72;2.92;;;;;;;20.98;53.88;93938.00;5118382;28;20615;-69
2022/09/28 10:52:38;;;;;;;5.03;2.53;;;;;;;21.12;54.12;93928.34;5118097;28;20204;-69
2022/09/28 10:55:29;;;;;;;3.25;1.88;;;;;;;21.17;49.15;93922.22;5117684;28;20259;-70
2022/09/28 10:57:56;;;;;;;2.28;1.75;;;;;;;21.17;50.08;93916.59;5118864;28;20201;-70
2022/09/28 11:00:39;;;;;;;5.63;2.22;;;;;;;21.23;50.04;93916.81;5117992;28;20207;-69
2022/09/28 11:03:06;;;;;;;4.40;2.97;;;;;;;21.15;50.73;93916.25;5117913;28;20195;-69
2022/09/28 11:05:34;;;;;;;5.05;4.00;;;;;;;21.05;51.87;93922.97;5117697;28;20202;-70
2022/09/28 11:08:07;;;;;;;8.57;5.55;;;;;;;20.90;50.55;93917.03;5117614;28;20191;-69
2022/09/28 11:10:34;;;;;;;5.55;4.32;;;;;;;20.73;50.80;93926.75;5117685;28;20203;-70
2022/09/28 11:13:01;;;;;;;6.20;4.00;;;;;;;20.57;52.43;93920.00;5117365;28;20191;-70
2022/09/28 11:15:31;;;;;;;5.13;3.50;;;;;;;20.46;51.29;93921.53;5118399;28;20188;-70
2022/09/28 11:18:18;;;;;;;3.70;3.03;;;;;;;20.39;52.28;93908.53;5118233;28;20218;-70
2022/09/28 11:20:45;;;;;;;3.08;2.78;;;;;;;20.33;54.34;93904.69;5118201;28;20223;-70
2022/09/28 11:23:19;;;;;;;4.90;2.97;;;;;;;20.25;53.79;93892.91;5117523;28;20195;-70
2022/09/28 11:25:56;;;;;;;5.72;3.58;;;;;;;20.20;54.03;93904.66;5118511;28;20200;-69
2022/09/28 11:28:26;;;;;;;4.32;2.53;;;;;;;20.15;51.78;93892.00;5117457;28;20207;-70
2022/09/28 11:30:53;;;;;;;2.78;2.53;;;;;;;20.13;51.87;93886.06;5117065;28;20238;-69
2022/09/28 11:33:26;;;;;;;4.35;3.03;;;;;;;20.33;52.40;93880.28;5118318;28;20190;-70
2022/09/28 11:35:58;;;;;;;3.60;2.50;;;;;;;20.60;53.91;93879.91;5116964;28;20649;-70
2022/09/28 11:38:32;;;;;;;4.45;3.10;;;;;;;20.82;51.67;93876.47;5117060;28;20220;-69
2022/09/28 11:41:17;;;;;;;4.18;2.50;;;;;;;20.91;51.35;93887.75;5117887;28;20198;-69
2022/09/28 11:43:56;;;;;;;2.60;2.30;;;;;;;21.04;51.17;93899.00;5117799;28;20223;-69
2022/09/28 11:46:27;;;;;;;3.10;2.80;;;;;;;21.20;51.02;93889.66;5117561;28;20195;-69
2022/09/28 11:48:59;;;;;;;3.33;2.70;;;;;;;21.25;50.44;93886.31;5118497;28;20257;-69
2022/09/28 11:51:29;;;;;;;3.88;2.65;;;;;;;21.22;51.07;93882.38;5118581;28;20211;-70